createdAt,value
2019-02-07T00:00:35.964Z,4.33
2019-02-07T00:01:35.964Z,4.29
2019-02-07T00:02:36.000Z,4.26
2019-02-07T00:03:35.924Z,4.29
2019-02-07T00:04:36.722Z,4.26
2019-02-07T00:05:35.914Z,4.32
2019-02-07T00:06:35.918Z,4.27
2019-02-07T00:07:35.896Z,4.27
2019-02-07T00:08:35.877Z,4.34
2019-02-07T00:09:35.867Z,4.29
2019-02-07T00:10:35.859Z,4.27
2019-02-07T00:11:35.862Z,4.33
2019-02-07T00:12:35.829Z,4.37
2019-02-07T00:13:35.828Z,4.29
2019-02-07T00:14:39.766Z,4.26
2019-02-07T00:15:36.588Z,4.30
2019-02-07T00:16:35.817Z,4.29
2019-02-07T00:17:35.772Z,4.23
2019-02-07T00:18:35.768Z,4.16
2019-02-07T00:19:35.743Z,4.26
2019-02-07T00:20:35.747Z,4.23
2019-02-07T00:21:35.750Z,4.18
2019-02-07T00:22:35.719Z,4.18
2019-02-07T00:23:35.709Z,4.20
2019-02-07T00:24:42.536Z,4.16
2019-02-07T00:25:36.704Z,4.18
2019-02-07T00:26:35.701Z,4.14
2019-02-07T00:27:35.674Z,4.16
2019-02-07T00:28:35.657Z,4.11
2019-02-07T00:29:35.646Z,4.04
2019-02-07T00:30:35.629Z,4.05
2019-02-07T00:31:35.634Z,4.12
2019-02-07T00:32:35.615Z,4.02
2019-02-07T00:33:35.601Z,4.04
2019-02-07T00:34:35.602Z,4.06
2019-02-07T00:35:35.576Z,4.09
2019-02-07T00:36:35.587Z,4.05
2019-02-07T00:37:35.559Z,4.00
2019-02-07T00:38:35.547Z,4.06
2019-02-07T00:39:35.531Z,4.02
2019-02-07T00:40:35.533Z,3.97
2019-02-07T00:41:35.539Z,4.00
2019-02-07T00:42:35.501Z,4.02
2019-02-07T00:43:35.498Z,4.04
2019-02-07T00:44:35.484Z,3.97
2019-02-07T00:45:35.472Z,3.90
2019-02-07T00:46:35.498Z,3.94
2019-02-07T00:47:35.444Z,3.93
2019-02-07T00:48:35.434Z,3.91
2019-02-07T00:49:35.421Z,3.93
2019-02-07T00:50:35.429Z,3.84
2019-02-07T00:51:35.420Z,3.79
2019-02-07T00:52:35.418Z,3.86
2019-02-07T00:53:35.377Z,3.80
2019-02-07T00:54:35.370Z,3.80
2019-02-07T00:55:35.377Z,3.83
2019-02-07T00:56:35.350Z,3.79
2019-02-07T00:57:35.351Z,3.76
2019-02-07T00:58:35.343Z,3.78
2019-02-07T00:59:35.315Z,3.79
2019-02-07T01:00:35.332Z,3.84
2019-02-07T01:01:35.300Z,3.87
2019-02-07T01:02:35.318Z,3.87
2019-02-07T01:03:35.280Z,3.84
2019-02-07T01:04:35.255Z,3.87
2019-02-07T01:05:35.247Z,3.84
2019-02-07T01:06:35.249Z,3.87
2019-02-07T01:07:35.246Z,3.83
2019-02-07T01:08:35.228Z,3.90
2019-02-07T01:09:35.207Z,3.86
2019-02-07T01:10:35.193Z,3.79
2019-02-07T01:11:35.176Z,3.84
2019-02-07T01:12:35.196Z,3.87
2019-02-07T01:13:35.172Z,3.84
2019-02-07T01:14:35.161Z,3.76
2019-02-07T01:15:35.164Z,3.76
2019-02-07T01:16:35.152Z,3.73
2019-02-07T01:17:35.136Z,3.62
2019-02-07T01:18:35.108Z,3.68
2019-02-07T01:19:35.102Z,3.66
2019-02-07T01:20:35.084Z,3.58
2019-02-07T01:21:35.126Z,3.58
2019-02-07T01:22:35.102Z,3.66
2019-02-07T01:23:35.068Z,3.60
2019-02-07T01:24:35.038Z,3.60
2019-02-07T01:25:35.034Z,3.58
2019-02-07T01:26:35.021Z,3.58
2019-02-07T01:27:35.030Z,3.65
2019-02-07T01:28:34.998Z,3.50
2019-02-07T01:29:34.991Z,3.51
2019-02-07T01:30:34.984Z,3.57
2019-02-07T01:31:34.980Z,3.42
2019-02-07T01:32:34.980Z,3.50
2019-02-07T01:33:34.948Z,3.48
2019-02-07T01:34:34.940Z,3.51
2019-02-07T01:35:34.915Z,3.48
2019-02-07T01:36:34.911Z,3.50
2019-02-07T01:37:34.900Z,3.48
2019-02-07T01:38:34.905Z,3.45
2019-02-07T01:39:34.874Z,3.45
2019-02-07T01:40:34.881Z,3.45
2019-02-07T01:41:34.873Z,3.39
2019-02-07T01:42:34.840Z,3.39
2019-02-07T01:43:34.854Z,3.36
2019-02-07T01:44:34.823Z,3.47
2019-02-07T01:45:34.823Z,3.35
2019-02-07T01:46:34.795Z,3.32
2019-02-07T01:47:34.790Z,3.32
2019-02-07T01:48:34.799Z,3.32
2019-02-07T01:49:34.788Z,3.24
2019-02-07T01:50:34.759Z,3.31
2019-02-07T01:51:34.751Z,3.33
2019-02-07T01:52:34.740Z,3.24
2019-02-07T01:53:34.745Z,3.18
2019-02-07T01:54:34.721Z,3.21
2019-02-07T01:55:34.699Z,3.24
2019-02-07T01:56:34.815Z,3.31
2019-02-07T01:57:34.686Z,3.31
2019-02-07T01:58:34.687Z,3.20
2019-02-07T01:59:34.659Z,3.21
2019-02-07T02:00:34.665Z,3.32
2019-02-07T02:01:34.639Z,3.33
2019-02-07T02:02:34.654Z,3.31
2019-02-07T02:03:34.657Z,3.28
2019-02-07T02:04:34.612Z,3.26
2019-02-07T02:05:34.599Z,3.26
2019-02-07T02:06:34.600Z,3.28
2019-02-07T02:07:34.571Z,3.32
2019-02-07T02:08:34.581Z,3.28
2019-02-07T02:09:34.557Z,3.21
2019-02-07T02:10:34.533Z,3.17
2019-02-07T02:11:34.544Z,3.15
2019-02-07T02:12:34.518Z,3.13
2019-02-07T02:13:34.541Z,3.13
2019-02-07T02:14:34.494Z,3.06
2019-02-07T02:15:34.501Z,3.08
2019-02-07T02:16:34.483Z,3.15
2019-02-07T02:17:34.472Z,3.06
2019-02-07T02:18:34.460Z,3.10
2019-02-07T02:19:34.488Z,3.11
2019-02-07T02:20:34.434Z,3.20
2019-02-07T02:21:34.421Z,3.18
2019-02-07T02:22:34.407Z,3.15
2019-02-07T02:23:34.418Z,3.14
2019-02-07T02:24:34.398Z,3.13
2019-02-07T02:25:34.382Z,3.13
2019-02-07T02:26:34.372Z,3.15
2019-02-07T02:27:34.360Z,3.15
2019-02-07T02:28:34.346Z,3.11
2019-02-07T02:29:34.454Z,3.14
2019-02-07T02:30:34.344Z,3.15
2019-02-07T02:31:34.315Z,3.13
2019-02-07T02:32:34.310Z,3.14
2019-02-07T02:33:34.332Z,3.05
2019-02-07T02:34:34.296Z,3.10
2019-02-07T02:35:34.306Z,3.10
2019-02-07T02:36:34.261Z,3.08
2019-02-07T02:37:34.254Z,3.13
2019-02-07T02:38:34.245Z,3.02
2019-02-07T02:39:34.256Z,3.00
2019-02-07T02:40:34.217Z,3.02
2019-02-07T02:41:34.211Z,3.06
2019-02-07T02:42:34.196Z,3.05
2019-02-07T02:43:34.187Z,3.03
2019-02-07T02:44:34.197Z,3.05
2019-02-07T02:45:37.523Z,3.06
2019-02-07T02:46:34.149Z,2.97
2019-02-07T02:47:34.147Z,3.00
2019-02-07T02:48:34.128Z,3.02
2019-02-07T02:49:34.148Z,3.05
2019-02-07T02:50:34.109Z,2.97
2019-02-07T02:51:34.118Z,2.96
2019-02-07T02:52:34.094Z,2.97
2019-02-07T02:53:34.101Z,2.92
2019-02-07T02:54:34.093Z,3.03
2019-02-07T02:55:34.215Z,2.99
2019-02-07T02:56:34.050Z,3.02
2019-02-07T02:57:34.041Z,2.95
2019-02-07T02:58:34.023Z,2.96
2019-02-07T02:59:34.054Z,2.92
2019-02-07T03:00:33.996Z,2.95
2019-02-07T03:01:33.985Z,2.93
2019-02-07T03:02:33.982Z,2.96
2019-02-07T03:03:33.963Z,2.93
2019-02-07T03:04:33.961Z,2.81
2019-02-07T03:05:33.975Z,2.78
2019-02-07T03:06:33.936Z,2.82
2019-02-07T03:07:33.938Z,2.81
2019-02-07T03:08:33.936Z,2.81
2019-02-07T03:09:34.659Z,2.81
2019-02-07T03:10:33.897Z,2.79
2019-02-07T03:11:33.891Z,2.85
2019-02-07T03:12:33.875Z,2.82
2019-02-07T03:13:33.849Z,2.84
2019-02-07T03:14:33.846Z,2.81
2019-02-07T03:15:33.860Z,2.81
2019-02-07T03:16:33.835Z,2.85
2019-02-07T03:17:33.818Z,2.79
2019-02-07T03:18:33.807Z,2.81
2019-02-07T03:19:33.785Z,2.82
2019-02-07T03:20:33.813Z,2.81
2019-02-07T03:21:33.773Z,2.87
2019-02-07T03:22:33.757Z,2.89
2019-02-07T03:23:33.751Z,2.85
2019-02-07T03:24:33.745Z,2.81
2019-02-07T03:25:33.741Z,2.87
2019-02-07T03:26:33.717Z,2.79
2019-02-07T03:27:33.705Z,2.74
2019-02-07T03:28:33.694Z,2.77
2019-02-07T03:29:33.699Z,2.77
2019-02-07T03:30:33.687Z,2.81
2019-02-07T03:31:33.679Z,2.75
2019-02-07T03:32:33.654Z,2.74
2019-02-07T03:33:33.664Z,2.69
2019-02-07T03:34:33.627Z,2.64
2019-02-07T03:35:33.629Z,2.66
2019-02-07T03:36:33.606Z,2.67
2019-02-07T03:37:33.597Z,2.67
2019-02-07T03:38:33.587Z,2.71
2019-02-07T03:39:33.601Z,2.67
2019-02-07T03:40:33.596Z,2.64
2019-02-07T03:41:33.555Z,2.67
2019-02-07T03:42:33.552Z,2.71
2019-02-07T03:43:33.532Z,2.69
2019-02-07T03:44:33.523Z,2.60
2019-02-07T03:45:33.496Z,2.69
2019-02-07T03:46:33.513Z,2.61
2019-02-07T03:47:33.492Z,2.61
2019-02-07T03:48:33.487Z,2.59
2019-02-07T03:49:33.481Z,2.48
2019-02-07T03:50:33.459Z,2.43
2019-02-07T03:51:33.453Z,2.59
2019-02-07T03:52:33.435Z,2.57
2019-02-07T03:53:33.425Z,2.46
2019-02-07T03:54:33.415Z,2.46
2019-02-07T03:55:33.396Z,2.54
2019-02-07T03:56:33.417Z,2.39
2019-02-07T03:57:33.410Z,2.39
2019-02-07T03:58:33.380Z,2.41
2019-02-07T03:59:33.363Z,2.45
2019-02-07T04:00:33.352Z,2.42
2019-02-07T04:01:33.362Z,2.38
2019-02-07T04:02:33.424Z,2.42
2019-02-07T04:03:33.308Z,2.38
2019-02-07T04:04:33.319Z,2.35
2019-02-07T04:05:33.296Z,2.28
2019-02-07T04:06:33.306Z,2.31
2019-02-07T04:07:33.270Z,2.36
2019-02-07T04:08:33.260Z,2.38
2019-02-07T04:09:33.238Z,2.31
2019-02-07T04:10:33.237Z,2.31
2019-02-07T04:11:33.242Z,2.41
2019-02-07T04:12:33.231Z,2.38
2019-02-07T04:13:33.194Z,2.34
2019-02-07T04:14:33.193Z,2.34
2019-02-07T04:15:33.188Z,2.35
2019-02-07T04:16:33.186Z,2.27
2019-02-07T04:17:33.163Z,2.27
2019-02-07T04:18:33.153Z,2.25
2019-02-07T04:19:33.133Z,2.23
2019-02-07T04:20:33.130Z,2.23
2019-02-07T04:21:33.358Z,2.20
2019-02-07T04:22:33.111Z,2.14
2019-02-07T04:23:33.106Z,2.17
2019-02-07T04:24:33.082Z,2.14
2019-02-07T04:25:33.069Z,2.10
2019-02-07T04:26:33.093Z,2.06
2019-02-07T04:27:33.058Z,2.07
2019-02-07T04:28:33.070Z,2.07
2019-02-07T04:29:33.032Z,2.16
2019-02-07T04:30:33.014Z,2.12
2019-02-07T04:31:33.019Z,2.05
2019-02-07T04:32:33.026Z,2.05
2019-02-07T04:33:32.990Z,2.17
2019-02-07T04:34:32.980Z,2.17
2019-02-07T04:35:32.975Z,2.06
2019-02-07T04:36:32.954Z,2.00
2019-02-07T04:37:32.956Z,2.09
2019-02-07T04:38:32.939Z,2.03
2019-02-07T04:39:32.938Z,2.03
2019-02-07T04:40:32.927Z,2.05
2019-02-07T04:41:32.917Z,2.00
2019-02-07T04:42:32.923Z,1.99
2019-02-07T04:43:32.884Z,1.98
2019-02-07T04:44:32.869Z,1.99
2019-02-07T04:45:32.855Z,1.98
2019-02-07T04:46:32.845Z,1.93
2019-02-07T04:47:32.864Z,2.05
2019-02-07T04:48:32.819Z,1.98
2019-02-07T04:49:32.830Z,1.90
2019-02-07T04:50:32.811Z,1.91
2019-02-07T04:51:32.793Z,1.90
2019-02-07T04:52:32.795Z,1.83
2019-02-07T04:53:32.773Z,1.79
2019-02-07T04:54:32.759Z,1.83
2019-02-07T04:55:32.756Z,1.83
2019-02-07T04:56:32.738Z,1.80
2019-02-07T04:57:32.788Z,1.95
2019-02-07T04:58:32.723Z,1.88
2019-02-07T04:59:32.715Z,1.83
2019-02-07T05:00:32.709Z,1.88
2019-02-07T05:01:32.693Z,1.88
2019-02-07T05:02:32.668Z,1.99
2019-02-07T05:03:32.690Z,1.90
2019-02-07T05:04:32.641Z,2.00
2019-02-07T05:05:32.636Z,1.93
2019-02-07T05:06:32.632Z,1.84
2019-02-07T05:07:32.620Z,1.93
2019-02-07T05:08:32.657Z,1.91
2019-02-07T05:09:32.603Z,1.93
2019-02-07T05:10:32.578Z,1.86
2019-02-07T05:11:32.586Z,1.93
2019-02-07T05:12:32.562Z,1.86
2019-02-07T05:13:32.564Z,1.91
2019-02-07T05:14:32.543Z,1.80
2019-02-07T05:15:32.569Z,1.77
2019-02-07T05:16:39.830Z,1.87
2019-02-07T05:17:33.540Z,1.86
2019-02-07T05:18:32.516Z,1.83
2019-02-07T05:19:32.492Z,1.81
2019-02-07T05:20:32.982Z,1.84
2019-02-07T05:21:32.488Z,1.79
2019-02-07T05:22:32.465Z,1.79
2019-02-07T05:23:32.473Z,1.83
2019-02-07T05:24:32.434Z,1.91
2019-02-07T05:25:32.418Z,1.87
2019-02-07T05:26:32.419Z,1.93
2019-02-07T05:27:34.986Z,1.93
2019-02-07T05:28:32.397Z,1.87
2019-02-07T05:29:32.381Z,1.87
2019-02-07T05:30:32.376Z,1.87
2019-02-07T05:31:32.354Z,1.99
2019-02-07T05:32:32.362Z,2.02
2019-02-07T05:33:32.352Z,1.93
2019-02-07T05:34:32.327Z,1.87
2019-02-07T05:35:32.314Z,1.83
2019-02-07T05:36:32.369Z,1.93
2019-02-07T05:37:32.284Z,1.86
2019-02-07T05:38:32.315Z,1.80
2019-02-07T05:39:32.267Z,1.95
2019-02-07T05:40:32.321Z,1.83
2019-02-07T05:41:32.259Z,1.83
2019-02-07T05:42:32.247Z,1.90
2019-02-07T05:43:32.227Z,1.86
2019-02-07T05:44:32.246Z,1.76
2019-02-07T05:45:32.207Z,1.84
2019-02-07T05:46:32.193Z,1.83
2019-02-07T05:47:32.211Z,1.79
2019-02-07T05:48:32.165Z,1.84
2019-02-07T05:49:32.176Z,1.84
2019-02-07T05:50:32.156Z,1.80
2019-02-07T05:51:32.136Z,1.87
2019-02-07T05:52:32.135Z,1.81
2019-02-07T05:53:32.121Z,1.86
2019-02-07T05:54:32.134Z,1.84
2019-02-07T05:55:32.135Z,1.91
2019-02-07T05:56:32.089Z,1.83
2019-02-07T05:57:32.080Z,1.80
2019-02-07T05:58:32.065Z,1.83
2019-02-07T05:59:32.077Z,1.86
2019-02-07T06:00:32.049Z,1.87
2019-02-07T06:01:32.035Z,1.93
2019-02-07T06:02:32.023Z,1.90
2019-02-07T06:03:32.009Z,1.86
2019-02-07T06:04:32.017Z,1.86
2019-02-07T06:05:31.984Z,1.81
2019-02-07T06:06:31.979Z,1.81
2019-02-07T06:07:31.961Z,1.81
2019-02-07T06:08:32.014Z,1.84
2019-02-07T06:09:31.944Z,1.86
2019-02-07T06:10:31.967Z,1.86
2019-02-07T06:11:31.925Z,1.81
2019-02-07T06:12:31.913Z,1.79
2019-02-07T06:13:31.899Z,1.80
2019-02-07T06:14:31.891Z,1.86
2019-02-07T06:15:31.898Z,1.88
2019-02-07T06:16:31.882Z,1.86
2019-02-07T06:17:31.857Z,1.83
2019-02-07T06:18:31.847Z,1.81
2019-02-07T06:19:31.835Z,1.88
2019-02-07T06:20:31.934Z,1.93
2019-02-07T06:21:31.820Z,1.81
2019-02-07T06:22:31.817Z,1.86
2019-02-07T06:23:31.799Z,1.95
2019-02-07T06:24:31.779Z,1.80
2019-02-07T06:25:31.783Z,1.93
2019-02-07T06:26:31.763Z,1.86
2019-02-07T06:27:31.750Z,1.79
2019-02-07T06:28:31.738Z,1.86
2019-02-07T06:29:31.727Z,1.87
2019-02-07T06:30:31.747Z,1.90
2019-02-07T06:31:31.706Z,1.80
2019-02-07T06:32:31.697Z,1.86
2019-02-07T06:33:31.685Z,1.83
2019-02-07T06:34:31.667Z,1.83
2019-02-07T06:35:31.659Z,1.80
2019-02-07T06:36:31.670Z,1.95
2019-02-07T06:37:31.636Z,1.95
2019-02-07T06:38:31.648Z,1.88
2019-02-07T06:39:31.621Z,1.86
2019-02-07T06:40:31.618Z,1.93
2019-02-07T06:41:31.627Z,2.02
2019-02-07T06:42:31.585Z,2.03
2019-02-07T06:43:31.573Z,2.03
2019-02-07T06:44:31.562Z,1.95
2019-02-07T06:45:31.556Z,1.98
2019-02-07T06:46:31.615Z,2.03
2019-02-07T06:47:31.530Z,1.98
2019-02-07T06:48:31.531Z,1.98
2019-02-07T06:49:31.512Z,1.99
2019-02-07T06:50:31.496Z,2.03
2019-02-07T06:51:31.522Z,1.99
2019-02-07T06:52:31.495Z,1.95
2019-02-07T06:53:31.472Z,1.98
2019-02-07T06:54:31.456Z,2.03
2019-02-07T06:55:31.450Z,2.03
2019-02-07T06:56:31.445Z,1.98
2019-02-07T06:57:31.458Z,2.05
2019-02-07T06:58:31.421Z,1.95
2019-02-07T06:59:31.398Z,1.99
2019-02-07T07:00:31.393Z,1.99
2019-02-07T07:01:31.382Z,2.06
2019-02-07T07:02:31.385Z,2.10
2019-02-07T07:03:31.374Z,2.05
2019-02-07T07:04:31.346Z,2.06
2019-02-07T07:05:31.341Z,2.06
2019-02-07T07:06:31.325Z,2.03
2019-02-07T07:07:31.328Z,2.14
2019-02-07T07:08:31.337Z,2.09
2019-02-07T07:09:31.295Z,2.12
2019-02-07T07:10:31.276Z,2.18
2019-02-07T07:11:31.278Z,2.18
2019-02-07T07:12:31.270Z,2.10
2019-02-07T07:13:31.255Z,2.14
2019-02-07T07:14:31.249Z,2.05
2019-02-07T07:15:31.225Z,2.18
2019-02-07T07:16:31.230Z,2.05
2019-02-07T07:17:31.247Z,2.17
2019-02-07T07:18:31.189Z,2.07
2019-02-07T07:19:31.249Z,2.09
2019-02-07T07:20:31.179Z,2.06
2019-02-07T07:21:31.169Z,2.12
2019-02-07T07:22:31.147Z,2.09
2019-02-07T07:23:31.167Z,2.07
2019-02-07T07:24:31.132Z,2.05
2019-02-07T07:25:31.143Z,2.16
2019-02-07T07:26:31.112Z,2.10
2019-02-07T07:27:31.112Z,2.03
2019-02-07T07:28:31.116Z,2.07
2019-02-07T07:29:31.076Z,2.05
2019-02-07T07:30:31.075Z,2.06
2019-02-07T07:31:31.059Z,2.10
2019-02-07T07:32:31.050Z,2.16
2019-02-07T07:33:31.051Z,2.20
2019-02-07T07:34:31.028Z,2.12
2019-02-07T07:35:31.009Z,2.09
2019-02-07T07:36:30.998Z,2.14
2019-02-07T07:37:31.010Z,2.14
2019-02-07T07:38:31.013Z,2.23
2019-02-07T07:39:30.957Z,2.17
2019-02-07T07:40:30.961Z,2.18
2019-02-07T07:41:30.948Z,2.27
2019-02-07T07:42:30.941Z,2.17
2019-02-07T07:43:30.949Z,2.20
2019-02-07T07:44:30.924Z,2.25
2019-02-07T07:45:30.925Z,2.18
2019-02-07T07:46:30.900Z,2.21
2019-02-07T07:47:36.030Z,2.20
2019-02-07T07:48:31.908Z,2.25
2019-02-07T07:49:30.855Z,2.25
2019-02-07T07:50:30.860Z,2.20
2019-02-07T07:51:30.874Z,2.28
2019-02-07T07:52:30.829Z,2.31
2019-02-07T07:53:30.811Z,2.42
2019-02-07T07:54:30.811Z,2.36
2019-02-07T07:55:30.799Z,2.36
2019-02-07T07:56:30.792Z,2.41
2019-02-07T07:57:30.773Z,2.39
2019-02-07T07:58:30.758Z,2.46
2019-02-07T07:59:30.773Z,2.42
2019-02-07T08:00:30.735Z,2.38
2019-02-07T08:01:30.733Z,2.39
2019-02-07T08:02:30.718Z,2.41
2019-02-07T08:03:30.704Z,2.39
2019-02-07T08:04:30.702Z,2.39
2019-02-07T08:05:30.682Z,2.41
2019-02-07T08:06:30.682Z,2.35
2019-02-07T08:07:30.661Z,2.41
2019-02-07T08:08:30.649Z,2.42
2019-02-07T08:09:30.659Z,2.46
2019-02-07T08:10:30.632Z,2.45
2019-02-07T08:11:30.613Z,2.39
2019-02-07T08:12:30.616Z,2.52
2019-02-07T08:13:30.597Z,2.42
2019-02-07T08:14:30.599Z,2.41
2019-02-07T08:15:30.613Z,2.41
2019-02-07T08:16:30.585Z,2.43
2019-02-07T08:17:30.563Z,2.41
2019-02-07T08:18:30.563Z,2.36
2019-02-07T08:19:30.543Z,2.42
2019-02-07T08:20:30.531Z,2.39
2019-02-07T08:21:30.512Z,2.41
2019-02-07T08:22:30.516Z,2.39
2019-02-07T08:23:30.484Z,2.46
2019-02-07T08:24:30.502Z,2.42
2019-02-07T08:25:30.460Z,2.42
2019-02-07T08:26:30.446Z,2.39
2019-02-07T08:27:30.440Z,2.38
2019-02-07T08:28:30.447Z,2.39
2019-02-07T08:29:30.423Z,2.41
2019-02-07T08:30:36.451Z,2.41
2019-02-07T08:31:31.409Z,2.41
2019-02-07T08:32:30.393Z,2.36
2019-02-07T08:33:30.376Z,2.42
2019-02-07T08:34:30.365Z,2.48
2019-02-07T08:35:30.380Z,2.53
2019-02-07T08:36:30.348Z,2.53
2019-02-07T08:37:30.342Z,2.53
2019-02-07T08:38:30.332Z,2.42
2019-02-07T08:39:30.373Z,2.53
2019-02-07T08:40:30.408Z,2.49
2019-02-07T08:41:30.289Z,2.46
2019-02-07T08:42:30.295Z,2.43
2019-02-07T08:43:30.277Z,2.63
2019-02-07T08:44:30.261Z,2.57
2019-02-07T08:45:30.269Z,2.49
2019-02-07T08:46:30.231Z,2.59
2019-02-07T08:47:30.223Z,2.52
2019-02-07T08:48:30.245Z,2.60
2019-02-07T08:49:30.217Z,2.54
2019-02-07T08:50:30.210Z,2.52
2019-02-07T08:51:30.181Z,2.43
2019-02-07T08:52:30.165Z,2.63
2019-02-07T08:53:30.166Z,2.56
2019-02-07T08:54:30.152Z,2.60
2019-02-07T08:55:30.184Z,2.60
2019-02-07T08:56:30.129Z,2.72
2019-02-07T08:57:30.122Z,2.69
2019-02-07T08:58:30.113Z,2.69
2019-02-07T08:59:30.122Z,2.69
2019-02-07T09:00:30.111Z,2.64
2019-02-07T09:01:30.094Z,2.79
2019-02-07T09:02:30.153Z,2.82
2019-02-07T09:03:30.069Z,2.72
2019-02-07T09:04:30.079Z,2.74
2019-02-07T09:05:30.035Z,2.79
2019-02-07T09:06:30.043Z,2.82
2019-02-07T09:07:32.077Z,2.84
2019-02-07T09:08:29.999Z,2.92
2019-02-07T09:09:30.004Z,2.85
2019-02-07T09:10:29.972Z,2.89
2019-02-07T09:11:29.975Z,2.99
2019-02-07T09:12:29.951Z,2.95
2019-02-07T09:13:29.941Z,2.96
2019-02-07T09:14:29.957Z,2.96
2019-02-07T09:15:29.928Z,3.05
2019-02-07T09:16:29.936Z,3.05
2019-02-07T09:17:29.903Z,2.99
2019-02-07T09:18:29.895Z,3.00
2019-02-07T09:19:29.926Z,3.00
2019-02-07T09:20:29.874Z,3.02
2019-02-07T09:21:29.879Z,2.96
2019-02-07T09:22:29.856Z,3.03
2019-02-07T09:23:29.866Z,3.02
2019-02-07T09:24:29.821Z,3.02
2019-02-07T09:25:34.329Z,3.02
2019-02-07T09:26:29.811Z,3.05
2019-02-07T09:27:29.815Z,2.99
2019-02-07T09:28:29.800Z,3.11
2019-02-07T09:29:29.765Z,3.10
2019-02-07T09:30:29.770Z,3.08
2019-02-07T09:31:29.743Z,3.08
2019-02-07T09:32:29.754Z,3.11
2019-02-07T09:33:29.735Z,3.08
2019-02-07T09:34:29.721Z,3.10
2019-02-07T09:35:29.716Z,3.17
2019-02-07T09:36:29.717Z,3.24
2019-02-07T09:37:29.696Z,3.18
2019-02-07T09:38:29.678Z,3.29
2019-02-07T09:39:29.841Z,3.32
2019-02-07T09:40:29.651Z,3.28
2019-02-07T09:41:29.652Z,3.39
2019-02-07T09:42:29.654Z,3.50
2019-02-07T09:43:30.806Z,3.40
2019-02-07T09:44:29.616Z,3.52
2019-02-07T09:45:29.593Z,3.52
2019-02-07T09:46:29.586Z,3.50
2019-02-07T09:47:29.591Z,3.60
2019-02-07T09:48:29.566Z,3.57
2019-02-07T09:49:29.550Z,3.60
2019-02-07T09:50:29.544Z,3.54
2019-02-07T09:51:29.553Z,3.72
2019-02-07T09:52:29.527Z,3.73
2019-02-07T09:53:29.540Z,3.72
2019-02-07T09:54:29.508Z,3.62
2019-02-07T09:55:29.497Z,3.60
2019-02-07T09:56:29.485Z,3.58
2019-02-07T09:57:29.458Z,3.54
2019-02-07T09:58:29.468Z,3.50
2019-02-07T09:59:29.447Z,3.47
2019-02-07T10:00:29.445Z,3.51
2019-02-07T10:01:29.423Z,3.52
2019-02-07T10:02:29.404Z,3.47
2019-02-07T10:03:29.441Z,3.52
2019-02-07T10:04:29.391Z,3.50
2019-02-07T10:05:29.374Z,3.45
2019-02-07T10:06:29.426Z,3.48
2019-02-07T10:07:29.362Z,3.52
2019-02-07T10:08:29.349Z,3.50
2019-02-07T10:09:29.359Z,3.45
2019-02-07T10:10:29.404Z,3.39
2019-02-07T10:11:29.316Z,3.45
2019-02-07T10:12:29.487Z,3.45
2019-02-07T10:13:29.389Z,3.40
2019-02-07T10:14:29.309Z,3.47
2019-02-07T10:15:29.272Z,3.48
2019-02-07T10:16:29.261Z,3.48
2019-02-07T10:17:29.259Z,3.47
2019-02-07T10:18:33.122Z,3.52
2019-02-07T10:19:29.253Z,3.51
2019-02-07T10:20:29.220Z,3.50
2019-02-07T10:21:29.297Z,3.47
2019-02-07T10:22:29.199Z,3.58
2019-02-07T10:23:29.198Z,3.60
2019-02-07T10:24:29.196Z,3.57
2019-02-07T10:25:29.156Z,3.55
2019-02-07T10:26:29.170Z,3.58
2019-02-07T10:27:29.148Z,3.62
2019-02-07T10:28:29.130Z,3.66
2019-02-07T10:29:29.137Z,3.62
2019-02-07T10:30:29.120Z,3.70
2019-02-07T10:31:29.102Z,3.72
2019-02-07T10:32:29.097Z,3.73
2019-02-07T10:33:29.074Z,3.83
2019-02-07T10:34:29.101Z,3.79
2019-02-07T10:35:29.052Z,3.76
2019-02-07T10:36:29.092Z,3.83
2019-02-07T10:37:29.042Z,3.86
2019-02-07T10:38:29.022Z,3.90
2019-02-07T10:39:29.006Z,3.88
2019-02-07T10:40:29.021Z,3.97
2019-02-07T10:41:31.474Z,4.04
2019-02-07T10:42:29.030Z,4.06
2019-02-07T10:43:28.967Z,4.11
2019-02-07T10:44:28.956Z,4.02
2019-02-07T10:45:28.969Z,4.02
2019-02-07T10:46:28.939Z,4.04
2019-02-07T10:47:30.548Z,4.15
2019-02-07T10:48:28.927Z,4.05
2019-02-07T10:49:28.908Z,4.04
2019-02-07T10:50:28.922Z,4.06
2019-02-07T10:51:28.885Z,4.06
2019-02-07T10:52:28.870Z,4.02
2019-02-07T10:53:28.871Z,3.98
2019-02-07T10:54:28.859Z,4.06
2019-02-07T10:55:28.876Z,4.02
2019-02-07T10:56:28.870Z,4.11
2019-02-07T10:57:28.871Z,4.23
2019-02-07T10:58:28.807Z,4.18
2019-02-07T10:59:28.786Z,4.16
2019-02-07T11:00:28.792Z,4.18
2019-02-07T11:01:28.787Z,4.20
2019-02-07T11:02:28.754Z,4.32
2019-02-07T11:03:28.740Z,4.27
2019-02-07T11:04:28.747Z,4.30
2019-02-07T11:05:28.719Z,4.30
2019-02-07T11:06:28.751Z,4.27
2019-02-07T11:07:28.710Z,4.42
2019-02-07T11:08:28.696Z,4.40
2019-02-07T11:09:28.688Z,4.37
2019-02-07T11:10:28.688Z,4.36
2019-02-07T11:11:28.687Z,4.36
2019-02-07T11:12:28.679Z,4.45
2019-02-07T11:13:28.641Z,4.44
2019-02-07T11:14:28.641Z,4.50
2019-02-07T11:15:28.617Z,4.52
2019-02-07T11:16:28.737Z,4.55
2019-02-07T11:17:28.599Z,4.59
2019-02-07T11:18:28.580Z,4.62
2019-02-07T11:19:28.571Z,4.59
2019-02-07T11:20:28.575Z,4.72
2019-02-07T11:21:28.570Z,4.69
2019-02-07T11:22:28.541Z,4.80
2019-02-07T11:23:28.539Z,4.69
2019-02-07T11:24:28.525Z,4.77
2019-02-07T11:25:28.512Z,4.75
2019-02-07T11:26:28.535Z,4.67
2019-02-07T11:27:28.490Z,4.78
2019-02-07T11:28:28.490Z,4.78
2019-02-07T11:29:28.475Z,4.77
2019-02-07T11:30:28.457Z,4.86
2019-02-07T11:31:28.436Z,4.82
2019-02-07T11:32:28.441Z,4.89
2019-02-07T11:33:28.417Z,4.94
2019-02-07T11:34:28.417Z,4.92
2019-02-07T11:35:28.404Z,5.00
2019-02-07T11:36:28.412Z,5.00
2019-02-07T11:37:28.387Z,5.07
2019-02-07T11:38:28.380Z,5.00
2019-02-07T11:39:29.773Z,5.18
2019-02-07T11:40:28.377Z,5.15
2019-02-07T11:41:28.397Z,5.15
2019-02-07T11:42:28.407Z,5.17
2019-02-07T11:43:28.341Z,5.21
2019-02-07T11:44:28.299Z,5.24
2019-02-07T11:45:28.333Z,5.22
2019-02-07T11:46:28.278Z,5.24
2019-02-07T11:47:28.287Z,5.31
2019-02-07T11:48:28.250Z,5.25
2019-02-07T11:49:28.231Z,5.25
2019-02-07T11:50:28.227Z,5.27
2019-02-07T11:51:28.214Z,5.30
2019-02-07T11:52:28.217Z,5.38
2019-02-07T11:53:28.217Z,5.33
2019-02-07T11:54:28.191Z,5.30
2019-02-07T11:55:28.173Z,5.35
2019-02-07T11:56:28.155Z,5.42
2019-02-07T11:57:28.148Z,5.48
2019-02-07T11:58:28.167Z,5.43
2019-02-07T11:59:28.120Z,5.46
2019-02-07T12:00:28.129Z,5.54
2019-02-07T12:01:28.108Z,5.48
2019-02-07T12:02:28.097Z,5.42
2019-02-07T12:03:28.100Z,5.49
2019-02-07T12:04:28.068Z,5.46
2019-02-07T12:05:28.112Z,5.43
2019-02-07T12:06:28.048Z,5.45
2019-02-07T12:07:28.056Z,5.46
2019-02-07T12:08:28.060Z,5.51
2019-02-07T12:09:28.022Z,5.45
2019-02-07T12:10:27.998Z,5.53
2019-02-07T12:11:28.002Z,5.49
2019-02-07T12:12:27.980Z,5.48
2019-02-07T12:13:27.991Z,5.53
2019-02-07T12:14:27.954Z,5.51
2019-02-07T12:15:27.954Z,5.57
2019-02-07T12:16:27.939Z,5.57
2019-02-07T12:17:27.930Z,5.51
2019-02-07T12:18:27.935Z,5.54
2019-02-07T12:19:27.909Z,5.57
2019-02-07T12:20:27.906Z,5.54
2019-02-07T12:21:27.888Z,5.60
2019-02-07T12:22:27.876Z,5.53
2019-02-07T12:23:27.866Z,5.57
2019-02-07T12:24:27.855Z,5.60
2019-02-07T12:25:27.842Z,5.67
2019-02-07T12:26:27.914Z,5.65
2019-02-07T12:27:27.816Z,5.56
2019-02-07T12:28:27.841Z,5.61
2019-02-07T12:29:27.818Z,5.67
2019-02-07T12:30:27.800Z,5.64
2019-02-07T12:31:27.782Z,5.67
2019-02-07T12:32:27.779Z,5.60
2019-02-07T12:33:27.778Z,5.61
2019-02-07T12:34:27.775Z,5.67
2019-02-07T12:35:27.743Z,5.60
2019-02-07T12:36:27.705Z,5.67
2019-02-07T12:37:27.712Z,5.64
2019-02-07T12:38:27.691Z,5.64
2019-02-07T12:39:27.702Z,5.64
2019-02-07T12:40:27.712Z,5.63
2019-02-07T12:41:27.684Z,5.63
2019-02-07T12:42:27.652Z,5.60
2019-02-07T12:43:27.633Z,5.54
2019-02-07T12:44:27.640Z,5.71
2019-02-07T12:45:27.638Z,5.64
2019-02-07T12:46:27.600Z,5.64
2019-02-07T12:47:27.589Z,5.64
2019-02-07T12:48:27.587Z,5.60
2019-02-07T12:49:29.348Z,5.64
2019-02-07T12:50:27.570Z,5.68
2019-02-07T12:51:27.559Z,5.68
2019-02-07T12:52:27.547Z,5.71
2019-02-07T12:53:27.527Z,5.64
2019-02-07T12:54:27.556Z,5.71
2019-02-07T12:55:27.499Z,5.68
2019-02-07T12:56:27.503Z,5.68
2019-02-07T12:57:27.500Z,5.61
2019-02-07T12:58:27.467Z,5.65
2019-02-07T12:59:27.449Z,5.65
2019-02-07T13:00:27.497Z,5.74
2019-02-07T13:01:27.439Z,5.74
2019-02-07T13:02:27.435Z,5.71
2019-02-07T13:03:27.417Z,5.78
2019-02-07T13:04:27.402Z,5.71
2019-02-07T13:05:27.425Z,5.72
2019-02-07T13:06:27.381Z,5.76
2019-02-07T13:07:27.373Z,5.76
2019-02-07T13:08:27.361Z,5.75
2019-02-07T13:09:27.350Z,5.71
2019-02-07T13:10:27.365Z,5.71
2019-02-07T13:11:27.331Z,5.72
2019-02-07T13:12:27.359Z,5.72
2019-02-07T13:13:27.305Z,5.65
2019-02-07T13:14:27.322Z,5.72
2019-02-07T13:15:27.321Z,5.75
2019-02-07T13:16:27.274Z,5.67
2019-02-07T13:17:27.283Z,5.68
2019-02-07T13:18:27.249Z,5.67